sensor_id;sensor_type;location;lat;lon;timestamp;P1;durP1;ratioP1;P2;durP2;ratioP2
1436;SDS011;712;51.026;13.792;2023-06-19T00:00:07;10.13;;;6.20;;
1436;SDS011;712;51.026;13.792;2023-06-19T00:02:38;11.30;;;6.82;;
1436;SDS011;712;51.026;13.792;2023-06-19T00:05:03;9.93;;;6.15;;
1436;SDS011;712;51.026;13.792;2023-06-19T00:07:28;9.40;;;6.33;;
1436;SDS011;712;51.026;13.792;2023-06-19T00:09:53;8.80;;;5.97;;
1436;SDS011;712;51.026;13.792;2023-06-19T00:12:18;8.32;;;5.78;;
1436;SDS011;712;51.026;13.792;2023-06-19T00:14:44;9.60;;;6.40;;
1436;SDS011;712;51.026;13.792;2023-06-19T00:17:09;8.80;;;5.88;;
1436;SDS011;712;51.026;13.792;2023-06-19T00:19:34;10.23;;;6.53;;
1436;SDS011;712;51.026;13.792;2023-06-19T00:22:01;9.63;;;6.38;;
1436;SDS011;712;51.026;13.792;2023-06-19T00:24:26;9.18;;;6.72;;
1436;SDS011;712;51.026;13.792;2023-06-19T00:26:51;8.57;;;6.10;;
1436;SDS011;712;51.026;13.792;2023-06-19T00:29:17;10.43;;;6.80;;
1436;SDS011;712;51.026;13.792;2023-06-19T00:31:42;8.27;;;6.07;;
1436;SDS011;712;51.026;13.792;2023-06-19T00:34:07;9.93;;;6.18;;
1436;SDS011;712;51.026;13.792;2023-06-19T00:36:32;10.95;;;6.82;;
1436;SDS011;712;51.026;13.792;2023-06-19T00:38:57;9.90;;;6.43;;
1436;SDS011;712;51.026;13.792;2023-06-19T00:41:22;10.07;;;6.37;;
1436;SDS011;712;51.026;13.792;2023-06-19T00:43:48;10.07;;;6.72;;
1436;SDS011;712;51.026;13.792;2023-06-19T00:46:13;8.85;;;6.55;;
1436;SDS011;712;51.026;13.792;2023-06-19T00:48:39;9.77;;;6.87;;
1436;SDS011;712;51.026;13.792;2023-06-19T00:51:04;10.20;;;6.90;;
1436;SDS011;712;51.026;13.792;2023-06-19T00:53:29;10.48;;;6.68;;
1436;SDS011;712;51.026;13.792;2023-06-19T00:55:55;10.07;;;6.68;;
1436;SDS011;712;51.026;13.792;2023-06-19T00:58:21;10.32;;;6.68;;
1436;SDS011;712;51.026;13.792;2023-06-19T01:00:47;8.80;;;7.03;;
1436;SDS011;712;51.026;13.792;2023-06-19T01:03:12;9.57;;;6.45;;
1436;SDS011;712;51.026;13.792;2023-06-19T01:05:37;10.17;;;6.80;;
1436;SDS011;712;51.026;13.792;2023-06-19T01:08:10;10.98;;;7.13;;
1436;SDS011;712;51.026;13.792;2023-06-19T01:10:38;9.25;;;6.90;;
1436;SDS011;712;51.026;13.792;2023-06-19T01:13:08;9.38;;;6.90;;
1436;SDS011;712;51.026;13.792;2023-06-19T01:15:35;9.05;;;6.47;;
1436;SDS011;712;51.026;13.792;2023-06-19T01:18:01;9.90;;;6.78;;
1436;SDS011;712;51.026;13.792;2023-06-19T01:20:27;8.60;;;6.47;;
1436;SDS011;712;51.026;13.792;2023-06-19T01:22:53;8.73;;;6.30;;
1436;SDS011;712;51.026;13.792;2023-06-19T01:25:21;10.75;;;6.75;;
1436;SDS011;712;51.026;13.792;2023-06-19T01:27:46;11.00;;;7.13;;
1436;SDS011;712;51.026;13.792;2023-06-19T01:30:12;9.70;;;6.72;;
1436;SDS011;712;51.026;13.792;2023-06-19T01:35:03;10.85;;;7.25;;
1436;SDS011;712;51.026;13.792;2023-06-19T01:37:29;10.95;;;6.93;;
1436;SDS011;712;51.026;13.792;2023-06-19T01:39:58;9.82;;;6.90;;
1436;SDS011;712;51.026;13.792;2023-06-19T01:42:24;10.13;;;6.85;;
1436;SDS011;712;51.026;13.792;2023-06-19T01:44:50;11.63;;;7.50;;
1436;SDS011;712;51.026;13.792;2023-06-19T01:47:15;11.00;;;7.13;;
1436;SDS011;712;51.026;13.792;2023-06-19T01:49:44;9.75;;;6.72;;
1436;SDS011;712;51.026;13.792;2023-06-19T01:52:09;10.10;;;7.23;;
1436;SDS011;712;51.026;13.792;2023-06-19T01:54:35;11.25;;;7.47;;
1436;SDS011;712;51.026;13.792;2023-06-19T01:57:00;9.63;;;7.05;;
1436;SDS011;712;51.026;13.792;2023-06-19T01:59:25;13.47;;;7.20;;
1436;SDS011;712;51.026;13.792;2023-06-19T02:01:50;9.00;;;6.97;;
1436;SDS011;712;51.026;13.792;2023-06-19T02:04:15;11.90;;;7.37;;
1436;SDS011;712;51.026;13.792;2023-06-19T02:06:40;10.80;;;7.15;;
1436;SDS011;712;51.026;13.792;2023-06-19T02:09:06;9.70;;;7.10;;
1436;SDS011;712;51.026;13.792;2023-06-19T02:13:57;10.27;;;6.68;;
1436;SDS011;712;51.026;13.792;2023-06-19T02:16:23;10.75;;;6.97;;
1436;SDS011;712;51.026;13.792;2023-06-19T02:18:48;10.87;;;6.47;;
1436;SDS011;712;51.026;13.792;2023-06-19T02:21:13;9.48;;;6.88;;
1436;SDS011;712;51.026;13.792;2023-06-19T02:23:38;10.15;;;6.88;;
1436;SDS011;712;51.026;13.792;2023-06-19T02:26:03;9.03;;;6.73;;
1436;SDS011;712;51.026;13.792;2023-06-19T02:28:28;11.73;;;6.90;;
1436;SDS011;712;51.026;13.792;2023-06-19T02:30:53;9.55;;;6.47;;
1436;SDS011;712;51.026;13.792;2023-06-19T02:33:19;10.47;;;7.07;;
1436;SDS011;712;51.026;13.792;2023-06-19T02:35:44;12.83;;;7.33;;
1436;SDS011;712;51.026;13.792;2023-06-19T02:38:09;11.77;;;7.13;;
1436;SDS011;712;51.026;13.792;2023-06-19T02:40:34;11.60;;;7.27;;
1436;SDS011;712;51.026;13.792;2023-06-19T02:42:59;11.60;;;7.50;;
1436;SDS011;712;51.026;13.792;2023-06-19T02:45:25;9.27;;;6.63;;
1436;SDS011;712;51.026;13.792;2023-06-19T02:47:50;10.23;;;7.07;;
1436;SDS011;712;51.026;13.792;2023-06-19T02:50:16;10.30;;;7.03;;
1436;SDS011;712;51.026;13.792;2023-06-19T02:52:42;9.48;;;6.43;;
1436;SDS011;712;51.026;13.792;2023-06-19T02:55:07;10.53;;;7.40;;
1436;SDS011;712;51.026;13.792;2023-06-19T02:57:32;11.65;;;7.43;;
1436;SDS011;712;51.026;13.792;2023-06-19T02:59:58;10.13;;;7.15;;
1436;SDS011;712;51.026;13.792;2023-06-19T03:02:23;10.18;;;7.05;;
1436;SDS011;712;51.026;13.792;2023-06-19T03:04:48;10.10;;;7.15;;
1436;SDS011;712;51.026;13.792;2023-06-19T03:07:14;11.68;;;7.32;;
1436;SDS011;712;51.026;13.792;2023-06-19T03:09:39;10.40;;;6.87;;
1436;SDS011;712;51.026;13.792;2023-06-19T03:12:05;11.03;;;7.63;;
1436;SDS011;712;51.026;13.792;2023-06-19T03:14:30;9.73;;;6.83;;
1436;SDS011;712;51.026;13.792;2023-06-19T03:16:55;10.07;;;6.82;;
1436;SDS011;712;51.026;13.792;2023-06-19T03:19:20;12.00;;;7.75;;
1436;SDS011;712;51.026;13.792;2023-06-19T03:21:45;10.90;;;7.00;;
1436;SDS011;712;51.026;13.792;2023-06-19T03:24:10;12.43;;;6.82;;
1436;SDS011;712;51.026;13.792;2023-06-19T03:26:36;13.10;;;7.22;;
1436;SDS011;712;51.026;13.792;2023-06-19T03:29:01;10.63;;;7.20;;
1436;SDS011;712;51.026;13.792;2023-06-19T03:31:26;10.57;;;7.00;;
1436;SDS011;712;51.026;13.792;2023-06-19T03:33:51;10.45;;;7.07;;
1436;SDS011;712;51.026;13.792;2023-06-19T03:36:16;10.30;;;6.88;;
1436;SDS011;712;51.026;13.792;2023-06-19T03:38:41;12.60;;;6.77;;
1436;SDS011;712;51.026;13.792;2023-06-19T03:41:06;9.57;;;6.82;;
1436;SDS011;712;51.026;13.792;2023-06-19T03:43:32;8.77;;;6.60;;
1436;SDS011;712;51.026;13.792;2023-06-19T03:45:57;10.67;;;7.03;;
1436;SDS011;712;51.026;13.792;2023-06-19T03:48:22;10.52;;;7.15;;
1436;SDS011;712;51.026;13.792;2023-06-19T03:50:47;9.93;;;7.25;;
1436;SDS011;712;51.026;13.792;2023-06-19T03:53:12;10.23;;;6.70;;
1436;SDS011;712;51.026;13.792;2023-06-19T03:55:37;9.48;;;7.10;;
1436;SDS011;712;51.026;13.792;2023-06-19T03:58:02;10.63;;;7.00;;
1436;SDS011;712;51.026;13.792;2023-06-19T04:00:28;9.90;;;6.40;;
1436;SDS011;712;51.026;13.792;2023-06-19T04:02:53;9.48;;;6.68;;
1436;SDS011;712;51.026;13.792;2023-06-19T04:05:18;9.88;;;6.78;;
1436;SDS011;712;51.026;13.792;2023-06-19T04:07:44;9.90;;;7.07;;
1436;SDS011;712;51.026;13.792;2023-06-19T04:10:09;10.77;;;6.60;;
1436;SDS011;712;51.026;13.792;2023-06-19T04:12:36;9.63;;;6.57;;
1436;SDS011;712;51.026;13.792;2023-06-19T04:15:01;10.17;;;6.53;;
1436;SDS011;712;51.026;13.792;2023-06-19T04:17:26;9.70;;;6.87;;
1436;SDS011;712;51.026;13.792;2023-06-19T04:19:52;8.83;;;6.57;;
1436;SDS011;712;51.026;13.792;2023-06-19T04:22:17;10.00;;;7.00;;
1436;SDS011;712;51.026;13.792;2023-06-19T04:24:42;10.40;;;6.50;;
1436;SDS011;712;51.026;13.792;2023-06-19T04:27:07;9.23;;;6.43;;
1436;SDS011;712;51.026;13.792;2023-06-19T04:29:35;9.85;;;6.63;;
1436;SDS011;712;51.026;13.792;2023-06-19T04:32:00;9.68;;;6.55;;
1436;SDS011;712;51.026;13.792;2023-06-19T04:34:28;9.52;;;6.45;;
1436;SDS011;712;51.026;13.792;2023-06-19T04:36:53;10.52;;;6.90;;
1436;SDS011;712;51.026;13.792;2023-06-19T04:39:18;10.80;;;6.50;;
1436;SDS011;712;51.026;13.792;2023-06-19T04:41:43;9.32;;;6.63;;
1436;SDS011;712;51.026;13.792;2023-06-19T04:44:09;9.50;;;7.20;;
1436;SDS011;712;51.026;13.792;2023-06-19T04:46:34;9.18;;;6.18;;
1436;SDS011;712;51.026;13.792;2023-06-19T04:48:59;10.48;;;6.68;;
1436;SDS011;712;51.026;13.792;2023-06-19T04:51:25;8.82;;;6.10;;
1436;SDS011;712;51.026;13.792;2023-06-19T04:56:17;9.35;;;5.82;;
1436;SDS011;712;51.026;13.792;2023-06-19T04:58:42;9.07;;;5.77;;
1436;SDS011;712;51.026;13.792;2023-06-19T05:01:14;9.48;;;6.30;;
1436;SDS011;712;51.026;13.792;2023-06-19T05:03:39;10.93;;;6.80;;
1436;SDS011;712;51.026;13.792;2023-06-19T05:06:04;10.27;;;6.03;;
1436;SDS011;712;51.026;13.792;2023-06-19T05:08:30;11.80;;;6.50;;
1436;SDS011;712;51.026;13.792;2023-06-19T05:10:55;12.20;;;6.50;;
1436;SDS011;712;51.026;13.792;2023-06-19T05:13:21;11.63;;;6.28;;
1436;SDS011;712;51.026;13.792;2023-06-19T05:15:46;10.63;;;6.65;;
1436;SDS011;712;51.026;13.792;2023-06-19T05:18:11;9.33;;;6.10;;
1436;SDS011;712;51.026;13.792;2023-06-19T05:20:36;10.35;;;7.00;;
1436;SDS011;712;51.026;13.792;2023-06-19T05:23:02;10.13;;;6.50;;
1436;SDS011;712;51.026;13.792;2023-06-19T05:25:27;13.10;;;5.88;;
1436;SDS011;712;51.026;13.792;2023-06-19T05:27:52;11.32;;;6.35;;
1436;SDS011;712;51.026;13.792;2023-06-19T05:30:17;12.07;;;7.10;;
1436;SDS011;712;51.026;13.792;2023-06-19T05:32:42;9.23;;;6.50;;
1436;SDS011;712;51.026;13.792;2023-06-19T05:35:08;10.05;;;6.45;;
1436;SDS011;712;51.026;13.792;2023-06-19T05:37:33;11.97;;;7.23;;
1436;SDS011;712;51.026;13.792;2023-06-19T05:39:58;11.00;;;6.35;;
1436;SDS011;712;51.026;13.792;2023-06-19T05:42:24;11.25;;;6.88;;
1436;SDS011;712;51.026;13.792;2023-06-19T05:44:49;11.07;;;6.07;;
1436;SDS011;712;51.026;13.792;2023-06-19T05:47:14;8.80;;;6.13;;
1436;SDS011;712;51.026;13.792;2023-06-19T05:49:41;10.90;;;5.93;;
1436;SDS011;712;51.026;13.792;2023-06-19T05:52:07;10.65;;;6.88;;
1436;SDS011;712;51.026;13.792;2023-06-19T05:54:32;12.05;;;6.70;;
1436;SDS011;712;51.026;13.792;2023-06-19T05:56:57;10.05;;;5.95;;
1436;SDS011;712;51.026;13.792;2023-06-19T05:59:22;11.38;;;6.20;;
1436;SDS011;712;51.026;13.792;2023-06-19T06:01:47;9.73;;;6.60;;
1436;SDS011;712;51.026;13.792;2023-06-19T06:04:13;9.43;;;6.17;;
1436;SDS011;712;51.026;13.792;2023-06-19T06:06:38;11.10;;;6.32;;
1436;SDS011;712;51.026;13.792;2023-06-19T06:09:04;8.80;;;6.35;;
1436;SDS011;712;51.026;13.792;2023-06-19T06:11:29;11.77;;;6.22;;
1436;SDS011;712;51.026;13.792;2023-06-19T06:13:54;10.40;;;6.63;;
1436;SDS011;712;51.026;13.792;2023-06-19T06:16:19;11.45;;;6.50;;
1436;SDS011;712;51.026;13.792;2023-06-19T06:18:45;9.97;;;6.07;;
1436;SDS011;712;51.026;13.792;2023-06-19T06:21:10;10.38;;;6.05;;
1436;SDS011;712;51.026;13.792;2023-06-19T06:23:37;9.48;;;5.80;;
1436;SDS011;712;51.026;13.792;2023-06-19T06:26:02;9.23;;;6.10;;
1436;SDS011;712;51.026;13.792;2023-06-19T06:28:28;9.47;;;5.93;;
1436;SDS011;712;51.026;13.792;2023-06-19T06:30:54;7.80;;;5.70;;
1436;SDS011;712;51.026;13.792;2023-06-19T06:33:19;10.35;;;6.40;;
1436;SDS011;712;51.026;13.792;2023-06-19T06:35:44;8.80;;;6.13;;
1436;SDS011;712;51.026;13.792;2023-06-19T06:38:09;8.32;;;5.45;;
1436;SDS011;712;51.026;13.792;2023-06-19T06:40:34;8.35;;;5.80;;
1436;SDS011;712;51.026;13.792;2023-06-19T06:43:00;8.18;;;5.60;;
1436;SDS011;712;51.026;13.792;2023-06-19T06:45:25;8.73;;;6.28;;
1436;SDS011;712;51.026;13.792;2023-06-19T06:47:50;8.75;;;6.22;;
1436;SDS011;712;51.026;13.792;2023-06-19T06:50:15;8.48;;;5.88;;
1436;SDS011;712;51.026;13.792;2023-06-19T06:52:40;12.47;;;6.10;;
1436;SDS011;712;51.026;13.792;2023-06-19T06:55:06;8.32;;;5.82;;
1436;SDS011;712;51.026;13.792;2023-06-19T06:57:31;9.60;;;5.83;;
1436;SDS011;712;51.026;13.792;2023-06-19T06:59:56;9.50;;;5.97;;
1436;SDS011;712;51.026;13.792;2023-06-19T07:02:21;9.17;;;5.57;;
1436;SDS011;712;51.026;13.792;2023-06-19T07:04:46;8.43;;;5.47;;
1436;SDS011;712;51.026;13.792;2023-06-19T07:07:12;10.98;;;5.90;;
1436;SDS011;712;51.026;13.792;2023-06-19T07:09:37;8.27;;;5.90;;
1436;SDS011;712;51.026;13.792;2023-06-19T07:12:02;8.68;;;6.28;;
1436;SDS011;712;51.026;13.792;2023-06-19T07:14:29;10.02;;;6.30;;
1436;SDS011;712;51.026;13.792;2023-06-19T07:16:55;11.13;;;6.20;;
1436;SDS011;712;51.026;13.792;2023-06-19T07:19:20;8.48;;;6.07;;
1436;SDS011;712;51.026;13.792;2023-06-19T07:21:45;8.88;;;6.63;;
1436;SDS011;712;51.026;13.792;2023-06-19T07:24:10;7.60;;;5.60;;
1436;SDS011;712;51.026;13.792;2023-06-19T07:26:35;8.57;;;5.33;;
1436;SDS011;712;51.026;13.792;2023-06-19T07:29:00;8.75;;;5.90;;
1436;SDS011;712;51.026;13.792;2023-06-19T07:31:26;9.13;;;6.17;;
1436;SDS011;712;51.026;13.792;2023-06-19T07:33:51;10.65;;;6.55;;
1436;SDS011;712;51.026;13.792;2023-06-19T07:36:16;9.80;;;6.13;;
1436;SDS011;712;51.026;13.792;2023-06-19T07:38:41;10.07;;;5.80;;
1436;SDS011;712;51.026;13.792;2023-06-19T07:43:34;8.20;;;5.60;;
1436;SDS011;712;51.026;13.792;2023-06-19T07:48:24;8.38;;;5.78;;
1436;SDS011;712;51.026;13.792;2023-06-19T07:50:49;8.93;;;5.80;;
1436;SDS011;712;51.026;13.792;2023-06-19T07:53:15;8.48;;;5.55;;
1436;SDS011;712;51.026;13.792;2023-06-19T07:55:40;8.30;;;6.10;;
1436;SDS011;712;51.026;13.792;2023-06-19T07:58:05;8.57;;;5.70;;
1436;SDS011;712;51.026;13.792;2023-06-19T08:00:31;9.70;;;5.80;;
1436;SDS011;712;51.026;13.792;2023-06-19T08:02:56;15.30;;;6.23;;
1436;SDS011;712;51.026;13.792;2023-06-19T08:05:21;8.50;;;6.13;;
1436;SDS011;712;51.026;13.792;2023-06-19T08:07:46;10.07;;;6.60;;
1436;SDS011;712;51.026;13.792;2023-06-19T08:10:11;9.20;;;6.22;;
1436;SDS011;712;51.026;13.792;2023-06-19T08:12:37;14.75;;;6.85;;
1436;SDS011;712;51.026;13.792;2023-06-19T08:15:02;8.60;;;6.23;;
1436;SDS011;712;51.026;13.792;2023-06-19T08:19:52;8.90;;;5.65;;
1436;SDS011;712;51.026;13.792;2023-06-19T08:24:42;8.45;;;5.93;;
1436;SDS011;712;51.026;13.792;2023-06-19T08:27:08;7.78;;;5.38;;
1436;SDS011;712;51.026;13.792;2023-06-19T08:29:33;8.93;;;5.80;;
1436;SDS011;712;51.026;13.792;2023-06-19T08:34:23;8.68;;;5.57;;
1436;SDS011;712;51.026;13.792;2023-06-19T08:39:13;8.25;;;5.85;;
1436;SDS011;712;51.026;13.792;2023-06-19T08:41:39;9.03;;;5.80;;
1436;SDS011;712;51.026;13.792;2023-06-19T08:46:29;8.65;;;5.90;;
1436;SDS011;712;51.026;13.792;2023-06-19T08:48:54;10.00;;;6.13;;
1436;SDS011;712;51.026;13.792;2023-06-19T08:51:20;8.15;;;5.43;;
1436;SDS011;712;51.026;13.792;2023-06-19T08:53:49;9.35;;;6.03;;
1436;SDS011;712;51.026;13.792;2023-06-19T08:58:42;7.22;;;5.53;;
1436;SDS011;712;51.026;13.792;2023-06-19T09:01:07;9.10;;;6.20;;
1436;SDS011;712;51.026;13.792;2023-06-19T09:03:32;10.30;;;5.70;;
1436;SDS011;712;51.026;13.792;2023-06-19T09:06:02;8.15;;;6.15;;
1436;SDS011;712;51.026;13.792;2023-06-19T09:08:27;8.82;;;5.60;;
1436;SDS011;712;51.026;13.792;2023-06-19T09:10:56;10.80;;;6.00;;
1436;SDS011;712;51.026;13.792;2023-06-19T09:13:21;9.77;;;6.20;;
1436;SDS011;712;51.026;13.792;2023-06-19T09:15:46;8.80;;;6.13;;
1436;SDS011;712;51.026;13.792;2023-06-19T09:18:11;9.10;;;6.32;;
1436;SDS011;712;51.026;13.792;2023-06-19T09:20:38;8.23;;;5.72;;
1436;SDS011;712;51.026;13.792;2023-06-19T09:23:05;9.77;;;6.10;;
1436;SDS011;712;51.026;13.792;2023-06-19T09:25:30;9.93;;;6.10;;
1436;SDS011;712;51.026;13.792;2023-06-19T09:30:20;7.97;;;5.93;;
1436;SDS011;712;51.026;13.792;2023-06-19T09:32:46;10.60;;;6.38;;
1436;SDS011;712;51.026;13.792;2023-06-19T09:35:11;10.93;;;6.40;;
1436;SDS011;712;51.026;13.792;2023-06-19T09:37:36;9.40;;;6.60;;
1436;SDS011;712;51.026;13.792;2023-06-19T09:40:03;9.40;;;5.97;;
1436;SDS011;712;51.026;13.792;2023-06-19T09:42:36;9.55;;;6.72;;
1436;SDS011;712;51.026;13.792;2023-06-19T09:45:02;8.73;;;6.13;;
1436;SDS011;712;51.026;13.792;2023-06-19T09:47:35;8.30;;;5.95;;
1436;SDS011;712;51.026;13.792;2023-06-19T09:50:01;9.57;;;6.30;;
1436;SDS011;712;51.026;13.792;2023-06-19T09:52:26;12.38;;;6.25;;
1436;SDS011;712;51.026;13.792;2023-06-19T09:54:53;9.50;;;6.45;;
1436;SDS011;712;51.026;13.792;2023-06-19T09:59:45;9.57;;;6.27;;
1436;SDS011;712;51.026;13.792;2023-06-19T10:02:10;12.35;;;6.35;;
1436;SDS011;712;51.026;13.792;2023-06-19T10:04:43;11.38;;;6.30;;
1436;SDS011;712;51.026;13.792;2023-06-19T10:07:18;12.15;;;6.70;;
1436;SDS011;712;51.026;13.792;2023-06-19T10:12:40;9.60;;;6.43;;
1436;SDS011;712;51.026;13.792;2023-06-19T10:15:13;10.43;;;6.40;;
1436;SDS011;712;51.026;13.792;2023-06-19T10:18:01;8.45;;;6.43;;
1436;SDS011;712;51.026;13.792;2023-06-19T10:20:32;9.50;;;6.03;;
1436;SDS011;712;51.026;13.792;2023-06-19T10:22:58;9.60;;;6.32;;
1436;SDS011;712;51.026;13.792;2023-06-19T10:25:24;9.50;;;6.35;;
1436;SDS011;712;51.026;13.792;2023-06-19T10:27:49;8.63;;;6.03;;
1436;SDS011;712;51.026;13.792;2023-06-19T10:30:17;9.60;;;6.45;;
1436;SDS011;712;51.026;13.792;2023-06-19T10:32:46;10.63;;;6.20;;
1436;SDS011;712;51.026;13.792;2023-06-19T10:35:11;8.82;;;6.40;;
1436;SDS011;712;51.026;13.792;2023-06-19T10:37:37;8.75;;;5.95;;
1436;SDS011;712;51.026;13.792;2023-06-19T10:40:03;9.70;;;6.30;;
1436;SDS011;712;51.026;13.792;2023-06-19T10:42:33;8.45;;;6.45;;
1436;SDS011;712;51.026;13.792;2023-06-19T10:45:04;9.73;;;6.85;;
1436;SDS011;712;51.026;13.792;2023-06-19T10:47:31;8.35;;;6.05;;
1436;SDS011;712;51.026;13.792;2023-06-19T10:49:56;10.07;;;6.38;;
1436;SDS011;712;51.026;13.792;2023-06-19T10:52:21;10.68;;;6.63;;
1436;SDS011;712;51.026;13.792;2023-06-19T10:57:12;9.30;;;6.63;;
1436;SDS011;712;51.026;13.792;2023-06-19T10:59:38;9.45;;;6.30;;
1436;SDS011;712;51.026;13.792;2023-06-19T11:04:30;10.98;;;6.32;;
1436;SDS011;712;51.026;13.792;2023-06-19T11:06:55;8.43;;;6.33;;
1436;SDS011;712;51.026;13.792;2023-06-19T11:09:21;8.10;;;6.32;;
1436;SDS011;712;51.026;13.792;2023-06-19T11:14:12;10.27;;;6.57;;
1436;SDS011;712;51.026;13.792;2023-06-19T11:19:03;8.68;;;5.88;;
1436;SDS011;712;51.026;13.792;2023-06-19T11:23:54;8.45;;;6.50;;
1436;SDS011;712;51.026;13.792;2023-06-19T11:26:24;9.52;;;6.57;;
1436;SDS011;712;51.026;13.792;2023-06-19T11:28:49;8.77;;;6.05;;
1436;SDS011;712;51.026;13.792;2023-06-19T11:33:40;10.45;;;6.65;;
1436;SDS011;712;51.026;13.792;2023-06-19T11:38:31;9.73;;;6.82;;
1436;SDS011;712;51.026;13.792;2023-06-19T11:40:58;9.18;;;6.50;;
1436;SDS011;712;51.026;13.792;2023-06-19T11:45:48;8.20;;;6.43;;
1436;SDS011;712;51.026;13.792;2023-06-19T11:48:14;8.27;;;6.63;;
1436;SDS011;712;51.026;13.792;2023-06-19T11:53:04;8.77;;;6.00;;
1436;SDS011;712;51.026;13.792;2023-06-19T11:57:54;8.32;;;6.00;;
1436;SDS011;712;51.026;13.792;2023-06-19T12:02:45;8.07;;;6.10;;
1436;SDS011;712;51.026;13.792;2023-06-19T12:05:12;7.78;;;5.65;;
1436;SDS011;712;51.026;13.792;2023-06-19T12:10:02;9.77;;;5.60;;
1436;SDS011;712;51.026;13.792;2023-06-19T12:12:28;9.00;;;6.00;;
1436;SDS011;712;51.026;13.792;2023-06-19T12:17:19;8.20;;;5.78;;
1436;SDS011;712;51.026;13.792;2023-06-19T12:19:44;11.18;;;6.07;;
1436;SDS011;712;51.026;13.792;2023-06-19T12:22:09;8.00;;;5.47;;
1436;SDS011;712;51.026;13.792;2023-06-19T12:24:34;9.27;;;5.55;;
1436;SDS011;712;51.026;13.792;2023-06-19T12:27:00;9.23;;;5.63;;
1436;SDS011;712;51.026;13.792;2023-06-19T12:29:25;7.25;;;5.30;;
1436;SDS011;712;51.026;13.792;2023-06-19T12:31:51;7.55;;;5.40;;
1436;SDS011;712;51.026;13.792;2023-06-19T12:34:16;7.65;;;5.65;;
1436;SDS011;712;51.026;13.792;2023-06-19T12:36:42;7.80;;;5.47;;
1436;SDS011;712;51.026;13.792;2023-06-19T12:39:07;7.32;;;5.13;;
1436;SDS011;712;51.026;13.792;2023-06-19T12:41:39;7.88;;;4.80;;
1436;SDS011;712;51.026;13.792;2023-06-19T12:44:04;6.82;;;5.03;;
1436;SDS011;712;51.026;13.792;2023-06-19T12:46:30;9.20;;;5.53;;
1436;SDS011;712;51.026;13.792;2023-06-19T12:48:55;9.10;;;5.22;;
1436;SDS011;712;51.026;13.792;2023-06-19T12:51:20;7.88;;;5.22;;
1436;SDS011;712;51.026;13.792;2023-06-19T12:53:45;7.70;;;5.40;;
1436;SDS011;712;51.026;13.792;2023-06-19T12:58:35;7.47;;;5.80;;
1436;SDS011;712;51.026;13.792;2023-06-19T13:01:01;9.00;;;6.20;;
1436;SDS011;712;51.026;13.792;2023-06-19T13:03:26;8.82;;;6.10;;
1436;SDS011;712;51.026;13.792;2023-06-19T13:05:51;9.63;;;5.90;;
1436;SDS011;712;51.026;13.792;2023-06-19T13:08:16;10.83;;;6.17;;
1436;SDS011;712;51.026;13.792;2023-06-19T13:10:41;8.23;;;6.43;;
1436;SDS011;712;51.026;13.792;2023-06-19T13:13:06;11.27;;;6.57;;
1436;SDS011;712;51.026;13.792;2023-06-19T13:15:32;8.83;;;6.80;;
1436;SDS011;712;51.026;13.792;2023-06-19T13:17:58;9.73;;;6.28;;
1436;SDS011;712;51.026;13.792;2023-06-19T13:20:24;10.02;;;6.85;;
1436;SDS011;712;51.026;13.792;2023-06-19T13:22:49;10.30;;;6.70;;
1436;SDS011;712;51.026;13.792;2023-06-19T13:25:14;9.57;;;6.90;;
1436;SDS011;712;51.026;13.792;2023-06-19T13:27:39;8.63;;;6.60;;
1436;SDS011;712;51.026;13.792;2023-06-19T13:30:04;8.95;;;6.70;;
1436;SDS011;712;51.026;13.792;2023-06-19T13:32:30;8.00;;;6.45;;
1436;SDS011;712;51.026;13.792;2023-06-19T13:34:55;12.43;;;6.50;;
1436;SDS011;712;51.026;13.792;2023-06-19T13:37:21;11.20;;;7.15;;
1436;SDS011;712;51.026;13.792;2023-06-19T13:39:46;10.90;;;7.50;;
1436;SDS011;712;51.026;13.792;2023-06-19T13:42:11;9.23;;;6.77;;
1436;SDS011;712;51.026;13.792;2023-06-19T13:44:37;11.02;;;7.43;;
1436;SDS011;712;51.026;13.792;2023-06-19T13:47:03;9.32;;;6.93;;
1436;SDS011;712;51.026;13.792;2023-06-19T13:49:28;10.93;;;7.50;;
1436;SDS011;712;51.026;13.792;2023-06-19T13:51:53;10.60;;;7.13;;
1436;SDS011;712;51.026;13.792;2023-06-19T13:54:19;9.07;;;7.40;;
1436;SDS011;712;51.026;13.792;2023-06-19T13:56:45;11.35;;;7.47;;
1436;SDS011;712;51.026;13.792;2023-06-19T13:59:10;10.13;;;7.70;;
1436;SDS011;712;51.026;13.792;2023-06-19T14:01:36;9.23;;;7.37;;
1436;SDS011;712;51.026;13.792;2023-06-19T14:04:01;10.38;;;7.07;;
1436;SDS011;712;51.026;13.792;2023-06-19T14:06:26;11.75;;;7.60;;
1436;SDS011;712;51.026;13.792;2023-06-19T14:08:51;9.50;;;6.80;;
1436;SDS011;712;51.026;13.792;2023-06-19T14:11:17;9.97;;;7.67;;
1436;SDS011;712;51.026;13.792;2023-06-19T14:13:43;12.35;;;7.32;;
1436;SDS011;712;51.026;13.792;2023-06-19T14:16:08;10.52;;;7.40;;
1436;SDS011;712;51.026;13.792;2023-06-19T14:18:33;12.02;;;8.10;;
1436;SDS011;712;51.026;13.792;2023-06-19T14:21:00;12.48;;;7.82;;
1436;SDS011;712;51.026;13.792;2023-06-19T14:23:25;11.20;;;7.83;;
1436;SDS011;712;51.026;13.792;2023-06-19T14:25:50;10.18;;;6.97;;
1436;SDS011;712;51.026;13.792;2023-06-19T14:28:15;11.48;;;7.80;;
1436;SDS011;712;51.026;13.792;2023-06-19T14:30:41;10.90;;;7.30;;
1436;SDS011;712;51.026;13.792;2023-06-19T14:33:06;9.77;;;7.03;;
1436;SDS011;712;51.026;13.792;2023-06-19T14:35:35;9.45;;;7.22;;
1436;SDS011;712;51.026;13.792;2023-06-19T14:38:00;10.77;;;7.43;;
1436;SDS011;712;51.026;13.792;2023-06-19T14:40:25;9.37;;;7.53;;
1436;SDS011;712;51.026;13.792;2023-06-19T14:42:50;9.20;;;7.10;;
1436;SDS011;712;51.026;13.792;2023-06-19T14:45:15;10.80;;;7.55;;
1436;SDS011;712;51.026;13.792;2023-06-19T14:47:41;11.13;;;8.10;;
1436;SDS011;712;51.026;13.792;2023-06-19T14:50:06;10.80;;;7.83;;
1436;SDS011;712;51.026;13.792;2023-06-19T14:52:31;13.48;;;8.00;;
1436;SDS011;712;51.026;13.792;2023-06-19T14:54:56;12.23;;;8.73;;
1436;SDS011;712;51.026;13.792;2023-06-19T14:57:21;11.50;;;8.27;;
1436;SDS011;712;51.026;13.792;2023-06-19T14:59:47;11.50;;;8.10;;
1436;SDS011;712;51.026;13.792;2023-06-19T15:02:12;12.10;;;8.70;;
1436;SDS011;712;51.026;13.792;2023-06-19T15:04:37;12.68;;;8.50;;
1436;SDS011;712;51.026;13.792;2023-06-19T15:07:03;11.63;;;8.40;;
1436;SDS011;712;51.026;13.792;2023-06-19T15:09:28;13.47;;;8.73;;
1436;SDS011;712;51.026;13.792;2023-06-19T15:11:53;9.97;;;8.13;;
1436;SDS011;712;51.026;13.792;2023-06-19T15:14:19;12.38;;;8.23;;
1436;SDS011;712;51.026;13.792;2023-06-19T15:16:44;10.40;;;8.25;;
1436;SDS011;712;51.026;13.792;2023-06-19T15:19:09;13.93;;;8.83;;
1436;SDS011;712;51.026;13.792;2023-06-19T15:21:34;10.07;;;8.27;;
1436;SDS011;712;51.026;13.792;2023-06-19T15:24:00;10.95;;;8.15;;
1436;SDS011;712;51.026;13.792;2023-06-19T15:26:25;10.95;;;8.45;;
1436;SDS011;712;51.026;13.792;2023-06-19T15:28:50;9.82;;;8.38;;
1436;SDS011;712;51.026;13.792;2023-06-19T15:31:18;11.73;;;8.13;;
1436;SDS011;712;51.026;13.792;2023-06-19T15:33:43;20.47;;;9.23;;
1436;SDS011;712;51.026;13.792;2023-06-19T15:36:10;12.95;;;8.32;;
1436;SDS011;712;51.026;13.792;2023-06-19T15:38:35;13.98;;;8.27;;
1436;SDS011;712;51.026;13.792;2023-06-19T15:41:00;10.77;;;9.02;;
1436;SDS011;712;51.026;13.792;2023-06-19T15:43:25;12.95;;;8.38;;
1436;SDS011;712;51.026;13.792;2023-06-19T15:45:56;10.43;;;8.15;;
1436;SDS011;712;51.026;13.792;2023-06-19T15:48:21;12.23;;;9.05;;
1436;SDS011;712;51.026;13.792;2023-06-19T15:50:47;13.80;;;8.50;;
1436;SDS011;712;51.026;13.792;2023-06-19T15:53:12;11.20;;;8.02;;
1436;SDS011;712;51.026;13.792;2023-06-19T15:55:37;9.97;;;7.57;;
1436;SDS011;712;51.026;13.792;2023-06-19T15:58:02;12.18;;;8.25;;
1436;SDS011;712;51.026;13.792;2023-06-19T16:00:27;13.23;;;8.70;;
1436;SDS011;712;51.026;13.792;2023-06-19T16:02:53;12.50;;;8.93;;
1436;SDS011;712;51.026;13.792;2023-06-19T16:05:18;11.73;;;8.60;;